Wolke Sonne

Wetter Roßtal

Gehe zu: Ammerndorf

Tageswerte vom Freitag, 28.01.2022

Optionen

Tag:
Erweitert:

Alle Werte vom Freitag, 28.01.2022

Einen Moment bitte, die Daten werden aufbereitet...

UhrzeitTemperaturFeuchteLuftdruckNiederschlagEvapotranspirationNiederschlag?WindWindböenRegenrateWindrichtungHelligkeitSolarstrahlungUV-IndexSonne?Feinstaub 10µmFeinstaub 2,5µmUhrzeit
Diagramm IconDiagramm IconDiagramm IconDiagramm IconDiagramm IconDiagramm IconDiagramm IconDiagramm IconDiagramm IconDiagramm IconDiagramm IconDiagramm IconDiagramm IconDiagramm IconDiagramm IconDiagramm Icon
00:001,7 °C 94 % 1027,2 hPa 0,0 mm 0,0 mm nein 16,1 km/h 33,8 km/h 0,0 mm/h W 0,000 klux 0,0 W/qm 0,0 nein 3,91 µg/m³ 3,33 µg/m³ 00:00
00:051,7 °C 94 % 1027,0 hPa 0,0 mm 0,0 mm nein 14,5 km/h 27,4 km/h 0,0 mm/h W 0,000 klux 0,0 W/qm 0,0 nein 3,99 µg/m³ 3,25 µg/m³ 00:05
00:101,7 °C 94 % 1027,2 hPa 0,0 mm 0,0 mm nein 19,3 km/h 32,2 km/h 0,0 mm/h W 0,000 klux 0,0 W/qm 0,0 nein 2,97 µg/m³ 2,65 µg/m³ 00:10
00:151,7 °C 94 % 1027,2 hPa 0,0 mm 0,0 mm nein 16,1 km/h 30,6 km/h 0,0 mm/h W 0,000 klux 0,0 W/qm 0,0 nein 3,28 µg/m³ 2,51 µg/m³ 00:15
00:201,7 °C 94 % 1027,4 hPa 0,0 mm 0,0 mm nein 14,5 km/h 33,8 km/h 0,0 mm/h W 0,000 klux 0,0 W/qm 0,0 nein 2,86 µg/m³ 2,61 µg/m³ 00:20
00:251,7 °C 94 % 1027,2 hPa 0,0 mm 0,0 mm nein 17,7 km/h 30,6 km/h 0,0 mm/h W 0,000 klux 0,0 W/qm 0,0 nein 2,56 µg/m³ 2,22 µg/m³ 00:25
00:301,7 °C 94 % 1027,2 hPa 0,2 mm 0,0 mm ja 16,1 km/h 25,7 km/h 0,0 mm/h W 0,000 klux 0,0 W/qm 0,0 nein 2,56 µg/m³ 2,20 µg/m³ 00:30
00:351,7 °C 94 % 1027,4 hPa 0,0 mm 0,0 mm nein 12,9 km/h 30,6 km/h 0,0 mm/h W 0,000 klux 0,0 W/qm 0,0 nein 2,69 µg/m³ 2,17 µg/m³ 00:35
00:401,7 °C 94 % 1027,4 hPa 0,0 mm 0,0 mm nein 14,5 km/h 32,2 km/h 0,0 mm/h W 0,000 klux 0,0 W/qm 0,0 nein 3,23 µg/m³ 2,12 µg/m³ 00:40
00:451,7 °C 93 % 1027,4 hPa 0,0 mm 0,0 mm nein 9,7 km/h 19,3 km/h 0,0 mm/h W 0,000 klux 0,0 W/qm 0,0 nein 2,81 µg/m³ 2,54 µg/m³ 00:45
00:501,7 °C 94 % 1027,7 hPa 0,0 mm 0,0 mm nein 11,3 km/h 25,7 km/h 0,0 mm/h W 0,000 klux 0,0 W/qm 0,0 nein 2,64 µg/m³ 2,24 µg/m³ 00:50
00:551,7 °C 93 % 1027,6 hPa 0,0 mm 0,0 mm nein 11,3 km/h 25,7 km/h 0,0 mm/h W 0,000 klux 0,0 W/qm 0,0 nein 3,33 µg/m³ 2,97 µg/m³ 00:55
01:001,7 °C 93 % 1027,6 hPa 0,0 mm 0,0 mm nein 11,3 km/h 22,5 km/h 0,0 mm/h W 0,000 klux 0,0 W/qm 0,0 nein 3,19 µg/m³ 2,85 µg/m³ 01:00
01:051,7 °C 93 % 1027,6 hPa 0,0 mm 0,0 mm nein 12,9 km/h 29,0 km/h 0,0 mm/h W 0,000 klux 0,0 W/qm 0,0 nein 3,08 µg/m³ 2,76 µg/m³ 01:05
01:101,7 °C 93 % 1027,7 hPa 0,0 mm 0,0 mm nein 17,7 km/h 29,0 km/h 0,0 mm/h W 0,000 klux 0,0 W/qm 0,0 nein 2,93 µg/m³ 2,49 µg/m³ 01:10
01:151,7 °C 93 % 1027,7 hPa 0,0 mm 0,0 mm nein 11,3 km/h 29,0 km/h 0,0 mm/h WSW 0,000 klux 0,0 W/qm 0,0 nein 3,15 µg/m³ 2,40 µg/m³ 01:15
01:201,7 °C 93 % 1027,7 hPa 0,0 mm 0,0 mm nein 14,5 km/h 25,7 km/h 0,0 mm/h W 0,000 klux 0,0 W/qm 0,0 nein 2,64 µg/m³ 2,18 µg/m³ 01:20
01:251,7 °C 93 % 1027,8 hPa 0,0 mm 0,0 mm nein 11,3 km/h 22,5 km/h 0,0 mm/h W 0,000 klux 0,0 W/qm 0,0 nein 2,49 µg/m³ 2,25 µg/m³ 01:25
01:301,7 °C 93 % 1027,8 hPa 0,0 mm 0,0 mm nein 11,3 km/h 22,5 km/h 0,0 mm/h W 0,000 klux 0,0 W/qm 0,0 nein 2,23 µg/m³ 2,01 µg/m³ 01:30
01:351,7 °C 93 % 1027,9 hPa 0,0 mm 0,0 mm nein 9,7 km/h 20,9 km/h 0,0 mm/h WNW 0,000 klux 0,0 W/qm 0,0 nein 2,40 µg/m³ 1,99 µg/m³ 01:35
01:401,7 °C 93 % 1027,9 hPa 0,0 mm 0,0 mm nein 14,5 km/h 27,4 km/h 0,0 mm/h W 0,000 klux 0,0 W/qm 0,0 nein 2,47 µg/m³ 2,09 µg/m³ 01:40
01:451,7 °C 93 % 1027,8 hPa 0,0 mm 0,0 mm nein 8,0 km/h 24,1 km/h 0,0 mm/h W 0,000 klux 0,0 W/qm 0,0 nein 2,66 µg/m³ 2,15 µg/m³ 01:45
01:501,7 °C 93 % 1027,7 hPa 0,0 mm 0,0 mm nein 12,9 km/h 27,4 km/h 0,0 mm/h W 0,000 klux 0,0 W/qm 0,0 nein 2,77 µg/m³ 2,50 µg/m³ 01:50
01:551,7 °C 93 % 1027,8 hPa 0,0 mm 0,0 mm nein 11,3 km/h 24,1 km/h 0,0 mm/h W 0,000 klux 0,0 W/qm 0,0 nein 2,94 µg/m³ 2,62 µg/m³ 01:55
UhrzeitTemperaturFeuchteLuftdruckNiederschlagEvapotranspirationNiederschlag?WindWindböenRegenrateWindrichtungHelligkeitSolarstrahlungUV-IndexSonne?Feinstaub 10µmFeinstaub 2,5µmUhrzeit
02:001,7 °C 93 % 1028,0 hPa 0,0 mm 0,0 mm nein 14,5 km/h 27,4 km/h 0,0 mm/h W 0,000 klux 0,0 W/qm 0,0 nein 3,15 µg/m³ 2,72 µg/m³ 02:00
02:051,7 °C 93 % 1028,1 hPa 0,0 mm 0,0 mm nein 12,9 km/h 29,0 km/h 0,0 mm/h W 0,000 klux 0,0 W/qm 0,0 nein 3,33 µg/m³ 2,81 µg/m³ 02:05
02:101,7 °C 93 % 1028,2 hPa 0,0 mm 0,0 mm nein 11,3 km/h 22,5 km/h 0,0 mm/h W 0,000 klux 0,0 W/qm 0,0 nein 3,69 µg/m³ 2,98 µg/m³ 02:10
02:151,7 °C 93 % 1028,2 hPa 0,0 mm 0,0 mm nein 11,3 km/h 25,7 km/h 0,0 mm/h W 0,000 klux 0,0 W/qm 0,0 nein 3,21 µg/m³ 2,84 µg/m³ 02:15
02:201,7 °C 93 % 1028,3 hPa 0,0 mm 0,0 mm nein 11,3 km/h 22,5 km/h 0,0 mm/h W 0,000 klux 0,0 W/qm 0,0 nein 3,33 µg/m³ 2,98 µg/m³ 02:20
02:251,7 °C 93 % 1028,4 hPa 0,0 mm 0,0 mm nein 12,9 km/h 25,7 km/h 0,0 mm/h W 0,000 klux 0,0 W/qm 0,0 nein 3,51 µg/m³ 3,15 µg/m³ 02:25
02:301,7 °C 93 % 1028,4 hPa 0,0 mm 0,0 mm nein 12,9 km/h 27,4 km/h 0,0 mm/h W 0,000 klux 0,0 W/qm 0,0 nein 3,93 µg/m³ 2,89 µg/m³ 02:30
02:351,7 °C 93 % 1028,4 hPa 0,0 mm 0,0 mm nein 12,9 km/h 29,0 km/h 0,0 mm/h W 0,000 klux 0,0 W/qm 0,0 nein 3,76 µg/m³ 2,93 µg/m³ 02:35
02:401,7 °C 93 % 1028,5 hPa 0,0 mm 0,0 mm nein 16,1 km/h 30,6 km/h 0,0 mm/h W 0,000 klux 0,0 W/qm 0,0 nein 3,19 µg/m³ 2,65 µg/m³ 02:40
02:451,7 °C 93 % 1028,6 hPa 0,0 mm 0,0 mm nein 9,7 km/h 20,9 km/h 0,0 mm/h W 0,000 klux 0,0 W/qm 0,0 nein 3,83 µg/m³ 2,99 µg/m³ 02:45
02:501,7 °C 93 % 1028,6 hPa 0,0 mm 0,0 mm nein 12,9 km/h 27,4 km/h 0,0 mm/h W 0,000 klux 0,0 W/qm 0,0 nein 3,25 µg/m³ 2,72 µg/m³ 02:50
02:551,7 °C 93 % 1028,6 hPa 0,0 mm 0,0 mm nein 14,5 km/h 29,0 km/h 0,0 mm/h W 0,000 klux 0,0 W/qm 0,0 nein 3,43 µg/m³ 2,80 µg/m³ 02:55
03:001,7 °C 93 % 1028,8 hPa 0,0 mm 0,0 mm nein 14,5 km/h 22,5 km/h 0,0 mm/h W 0,000 klux 0,0 W/qm 0,0 nein 3,37 µg/m³ 2,90 µg/m³ 03:00
03:051,7 °C 93 % 1028,9 hPa 0,0 mm 0,0 mm nein 12,9 km/h 25,7 km/h 0,0 mm/h W 0,000 klux 0,0 W/qm 0,0 nein 3,66 µg/m³ 3,27 µg/m³ 03:05
03:101,7 °C 93 % 1028,9 hPa 0,0 mm 0,0 mm nein 9,7 km/h 20,9 km/h 0,0 mm/h W 0,000 klux 0,0 W/qm 0,0 nein 3,70 µg/m³ 2,89 µg/m³ 03:10
03:152,2 °C 93 % 1029,1 hPa 0,0 mm 0,0 mm nein 16,1 km/h 38,6 km/h 0,0 mm/h W 0,000 klux 0,0 W/qm 0,0 nein 3,37 µg/m³ 2,86 µg/m³ 03:15
03:202,2 °C 93 % 1029,2 hPa 0,0 mm 0,0 mm nein 14,5 km/h 24,1 km/h 0,0 mm/h W 0,000 klux 0,0 W/qm 0,0 nein 3,74 µg/m³ 2,78 µg/m³ 03:20
03:252,2 °C 92 % 1029,2 hPa 0,0 mm 0,0 mm nein 14,5 km/h 30,6 km/h 0,0 mm/h W 0,000 klux 0,0 W/qm 0,0 nein 3,35 µg/m³ 2,53 µg/m³ 03:25
03:302,2 °C 92 % 1029,2 hPa 0,0 mm 0,0 mm nein 19,3 km/h 32,2 km/h 0,0 mm/h W 0,000 klux 0,0 W/qm 0,0 nein 2,81 µg/m³ 2,23 µg/m³ 03:30
03:352,2 °C 92 % 1029,3 hPa 0,0 mm 0,0 mm nein 16,1 km/h 33,8 km/h 0,0 mm/h W 0,000 klux 0,0 W/qm 0,0 nein 2,99 µg/m³ 2,41 µg/m³ 03:35
03:402,2 °C 92 % 1029,4 hPa 0,0 mm 0,0 mm nein 16,1 km/h 27,4 km/h 0,0 mm/h W 0,000 klux 0,0 W/qm 0,0 nein 3,26 µg/m³ 2,44 µg/m³ 03:40
03:452,2 °C 91 % 1029,2 hPa 0,0 mm 0,0 mm nein 19,3 km/h 33,8 km/h 0,0 mm/h W 0,000 klux 0,0 W/qm 0,0 nein 2,57 µg/m³ 2,32 µg/m³ 03:45
03:502,2 °C 91 % 1029,1 hPa 0,0 mm 0,0 mm nein 14,5 km/h 32,2 km/h 0,0 mm/h W 0,000 klux 0,0 W/qm 0,0 nein 2,78 µg/m³ 2,51 µg/m³ 03:50
03:552,2 °C 91 % 1029,2 hPa 0,0 mm 0,0 mm nein 14,5 km/h 29,0 km/h 0,0 mm/h W 0,000 klux 0,0 W/qm 0,0 nein 3,32 µg/m³ 2,99 µg/m³ 03:55
UhrzeitTemperaturFeuchteLuftdruckNiederschlagEvapotranspirationNiederschlag?WindWindböenRegenrateWindrichtungHelligkeitSolarstrahlungUV-IndexSonne?Feinstaub 10µmFeinstaub 2,5µmUhrzeit
04:002,2 °C 91 % 1029,4 hPa 0,0 mm 0,0 mm nein 12,9 km/h 20,9 km/h 0,0 mm/h W 0,000 klux 0,0 W/qm 0,0 nein 3,22 µg/m³ 2,75 µg/m³ 04:00
04:052,2 °C 91 % 1029,3 hPa 0,0 mm 0,0 mm nein 11,3 km/h 22,5 km/h 0,0 mm/h W 0,000 klux 0,0 W/qm 0,0 nein 3,20 µg/m³ 2,82 µg/m³ 04:05
04:102,2 °C 91 % 1029,4 hPa 0,0 mm 0,0 mm nein 14,5 km/h 25,7 km/h 0,0 mm/h W 0,000 klux 0,0 W/qm 0,0 nein 3,48 µg/m³ 2,76 µg/m³ 04:10
04:152,2 °C 91 % 1029,3 hPa 0,0 mm 0,0 mm nein 14,5 km/h 24,1 km/h 0,0 mm/h W 0,000 klux 0,0 W/qm 0,0 nein 2,88 µg/m³ 2,33 µg/m³ 04:15
04:202,2 °C 91 % 1029,2 hPa 0,0 mm 0,0 mm nein 12,9 km/h 24,1 km/h 0,0 mm/h W 0,000 klux 0,0 W/qm 0,0 nein 2,78 µg/m³ 2,40 µg/m³ 04:20
04:252,2 °C 91 % 1029,3 hPa 0,0 mm 0,0 mm nein 14,5 km/h 25,7 km/h 0,0 mm/h W 0,000 klux 0,0 W/qm 0,0 nein 3,77 µg/m³ 2,79 µg/m³ 04:25
04:301,7 °C 91 % 1029,4 hPa 0,0 mm 0,0 mm nein 8,0 km/h 19,3 km/h 0,0 mm/h W 0,000 klux 0,0 W/qm 0,0 nein 3,78 µg/m³ 2,97 µg/m³ 04:30
04:351,7 °C 91 % 1029,5 hPa 0,0 mm 0,0 mm nein 11,3 km/h 22,5 km/h 0,0 mm/h W 0,000 klux 0,0 W/qm 0,0 nein 3,86 µg/m³ 3,48 µg/m³ 04:35
04:401,7 °C 91 % 1029,5 hPa 0,0 mm 0,0 mm nein 11,3 km/h 25,7 km/h 0,0 mm/h W 0,000 klux 0,0 W/qm 0,0 nein 3,68 µg/m³ 3,24 µg/m³ 04:40
04:451,7 °C 91 % 1029,7 hPa 0,0 mm 0,0 mm nein 11,3 km/h 20,9 km/h 0,0 mm/h W 0,000 klux 0,0 W/qm 0,0 nein 4,45 µg/m³ 3,43 µg/m³ 04:45
04:501,7 °C 91 % 1029,6 hPa 0,0 mm 0,0 mm nein 12,9 km/h 29,0 km/h 0,0 mm/h W 0,000 klux 0,0 W/qm 0,0 nein 4,41 µg/m³ 3,51 µg/m³ 04:50
04:551,7 °C 91 % 1029,7 hPa 0,0 mm 0,0 mm nein 12,9 km/h 29,0 km/h 0,0 mm/h W 0,000 klux 0,0 W/qm 0,0 nein 3,73 µg/m³ 2,85 µg/m³ 04:55
05:001,7 °C 91 % 1029,7 hPa 0,0 mm 0,0 mm nein 14,5 km/h 25,7 km/h 0,0 mm/h W 0,000 klux 0,0 W/qm 0,0 nein 3,73 µg/m³ 3,18 µg/m³ 05:00
05:051,7 °C 91 % 1029,7 hPa 0,0 mm 0,0 mm nein 12,9 km/h 29,0 km/h 0,0 mm/h W 0,000 klux 0,0 W/qm 0,0 nein 3,46 µg/m³ 3,00 µg/m³ 05:05
05:101,7 °C 91 % 1029,7 hPa 0,0 mm 0,0 mm nein 14,5 km/h 27,4 km/h 0,0 mm/h W 0,000 klux 0,0 W/qm 0,0 nein 4,00 µg/m³ 3,38 µg/m³ 05:10
05:151,7 °C 91 % 1029,9 hPa 0,0 mm 0,0 mm nein 16,1 km/h 30,6 km/h 0,0 mm/h W 0,000 klux 0,0 W/qm 0,0 nein 4,14 µg/m³ 3,10 µg/m³ 05:15
05:201,7 °C 91 % 1029,8 hPa 0,0 mm 0,0 mm nein 16,1 km/h 29,0 km/h 0,0 mm/h W 0,000 klux 0,0 W/qm 0,0 nein 3,83 µg/m³ 2,96 µg/m³ 05:20
05:251,7 °C 91 % 1029,9 hPa 0,0 mm 0,0 mm nein 17,7 km/h 30,6 km/h 0,0 mm/h W 0,000 klux 0,0 W/qm 0,0 nein 3,92 µg/m³ 3,15 µg/m³ 05:25
05:301,7 °C 91 % 1029,9 hPa 0,0 mm 0,0 mm nein 14,5 km/h 27,4 km/h 0,0 mm/h W 0,000 klux 0,0 W/qm 0,0 nein 3,75 µg/m³ 2,95 µg/m³ 05:30
05:351,7 °C 91 % 1030,2 hPa 0,0 mm 0,0 mm nein 9,7 km/h 22,5 km/h 0,0 mm/h WNW 0,000 klux 0,0 W/qm 0,0 nein - - 05:35
05:401,7 °C 91 % 1030,2 hPa 0,0 mm 0,0 mm nein 11,3 km/h 24,1 km/h 0,0 mm/h W 0,000 klux 0,0 W/qm 0,0 nein 3,34 µg/m³ 2,92 µg/m³ 05:40
05:451,7 °C 91 % 1030,4 hPa 0,0 mm 0,0 mm nein 11,3 km/h 20,9 km/h 0,0 mm/h W 0,000 klux 0,0 W/qm 0,0 nein 3,49 µg/m³ 2,81 µg/m³ 05:45
05:501,7 °C 91 % 1030,4 hPa 0,0 mm 0,0 mm nein 11,3 km/h 20,9 km/h 0,0 mm/h W 0,000 klux 0,0 W/qm 0,0 nein 3,98 µg/m³ 2,74 µg/m³ 05:50
05:551,7 °C 91 % 1030,5 hPa 0,0 mm 0,0 mm nein 12,9 km/h 24,1 km/h 0,0 mm/h W 0,000 klux 0,0 W/qm 0,0 nein 3,12 µg/m³ 2,55 µg/m³ 05:55
UhrzeitTemperaturFeuchteLuftdruckNiederschlagEvapotranspirationNiederschlag?WindWindböenRegenrateWindrichtungHelligkeitSolarstrahlungUV-IndexSonne?Feinstaub 10µmFeinstaub 2,5µmUhrzeit
06:001,7 °C 91 % 1030,5 hPa 0,0 mm 0,0 mm nein 12,9 km/h 32,2 km/h 0,0 mm/h W 0,000 klux 0,0 W/qm 0,0 nein 2,96 µg/m³ 2,41 µg/m³ 06:00
06:051,7 °C 91 % 1030,6 hPa 0,0 mm 0,0 mm nein 11,3 km/h 20,9 km/h 0,0 mm/h W 0,000 klux 0,0 W/qm 0,0 nein 2,92 µg/m³ 2,24 µg/m³ 06:05
06:101,7 °C 91 % 1030,6 hPa 0,0 mm 0,0 mm nein 9,7 km/h 19,3 km/h 0,0 mm/h W 0,000 klux 0,0 W/qm 0,0 nein 2,42 µg/m³ 2,18 µg/m³ 06:10
06:151,7 °C 92 % 1030,7 hPa 0,0 mm 0,0 mm nein 11,3 km/h 20,9 km/h 0,0 mm/h W 0,000 klux 0,0 W/qm 0,0 nein 2,34 µg/m³ 2,13 µg/m³ 06:15
06:201,7 °C 92 % 1030,8 hPa 0,0 mm 0,0 mm nein 11,3 km/h 19,3 km/h 0,0 mm/h W 0,000 klux 0,0 W/qm 0,0 nein 3,68 µg/m³ 2,42 µg/m³ 06:20
06:251,7 °C 92 % 1030,9 hPa 0,0 mm 0,0 mm nein 12,9 km/h 22,5 km/h 0,0 mm/h W 0,000 klux 0,0 W/qm 0,0 nein - - 06:25
06:301,7 °C 92 % 1030,9 hPa 0,0 mm 0,0 mm nein 9,7 km/h 19,3 km/h 0,0 mm/h W 0,000 klux 0,0 W/qm 0,0 nein 2,71 µg/m³ 2,19 µg/m³ 06:30
06:351,7 °C 92 % 1030,8 hPa 0,0 mm 0,0 mm nein 11,3 km/h 27,4 km/h 0,0 mm/h W 0,000 klux 0,0 W/qm 0,0 nein 3,62 µg/m³ 2,36 µg/m³ 06:35
06:401,7 °C 92 % 1031,1 hPa 0,0 mm 0,0 mm nein 14,5 km/h 35,4 km/h 0,0 mm/h WSW 0,000 klux 0,0 W/qm 0,0 nein 3,59 µg/m³ 2,24 µg/m³ 06:40
06:451,7 °C 92 % 1031,1 hPa 0,0 mm 0,0 mm nein 14,5 km/h 22,5 km/h 0,0 mm/h W 0,000 klux 0,0 W/qm 0,0 nein 2,49 µg/m³ 2,01 µg/m³ 06:45
06:501,7 °C 91 % 1031,4 hPa 0,0 mm 0,0 mm nein 14,5 km/h 27,4 km/h 0,0 mm/h W 0,000 klux 0,0 W/qm 0,0 nein 2,65 µg/m³ 2,34 µg/m³ 06:50
06:551,7 °C 91 % 1031,4 hPa 0,0 mm 0,0 mm nein 14,5 km/h 29,0 km/h 0,0 mm/h WNW 0,000 klux 0,0 W/qm 0,0 nein 3,00 µg/m³ 2,25 µg/m³ 06:55
07:001,7 °C 91 % 1031,5 hPa 0,0 mm 0,0 mm nein 9,7 km/h 19,3 km/h 0,0 mm/h W 0,000 klux 0,0 W/qm 0,0 nein 2,94 µg/m³ 2,39 µg/m³ 07:00
07:051,7 °C 91 % 1031,6 hPa 0,0 mm 0,0 mm nein 8,0 km/h 20,9 km/h 0,0 mm/h WNW 0,000 klux 0,0 W/qm 0,0 nein 16,32 µg/m³ 3,55 µg/m³ 07:05
07:101,7 °C 91 % 1031,7 hPa 0,0 mm 0,0 mm nein 9,7 km/h 19,3 km/h 0,0 mm/h W 0,000 klux 0,0 W/qm 0,0 nein 3,68 µg/m³ 2,48 µg/m³ 07:10
07:151,7 °C 91 % 1031,8 hPa 0,0 mm 0,0 mm nein 11,3 km/h 22,5 km/h 0,0 mm/h WNW 0,000 klux 0,0 W/qm 0,0 nein 2,70 µg/m³ 2,42 µg/m³ 07:15
07:201,7 °C 90 % 1031,8 hPa 0,0 mm 0,0 mm nein 14,5 km/h 24,1 km/h 0,0 mm/h WNW 0,000 klux 0,0 W/qm 0,0 nein 3,88 µg/m³ 2,61 µg/m³ 07:20
07:251,7 °C 91 % 1031,8 hPa 0,0 mm 0,0 mm nein 9,7 km/h 17,7 km/h 0,0 mm/h W 0,000 klux 0,0 W/qm 0,0 nein 3,41 µg/m³ 2,33 µg/m³ 07:25
07:301,7 °C 91 % 1031,8 hPa 0,0 mm 0,0 mm nein 12,9 km/h 25,7 km/h 0,0 mm/h W 0,000 klux 0,0 W/qm 0,0 nein 2,83 µg/m³ 2,48 µg/m³ 07:30
07:351,7 °C 91 % 1031,8 hPa 0,0 mm 0,0 mm nein 12,9 km/h 24,1 km/h 0,0 mm/h W 0,000 klux 0,0 W/qm 0,0 nein 3,06 µg/m³ 2,42 µg/m³ 07:35
07:401,7 °C 91 % 1031,8 hPa 0,0 mm 0,0 mm nein 12,9 km/h 27,4 km/h 0,0 mm/h W 0,000 klux 0,0 W/qm 0,0 nein 3,34 µg/m³ 2,45 µg/m³ 07:40
07:451,7 °C 91 % 1031,9 hPa 0,0 mm 0,0 mm nein 14,5 km/h 27,4 km/h 0,0 mm/h W 0,000 klux 0,0 W/qm 0,0 nein 3,40 µg/m³ 2,29 µg/m³ 07:45
07:501,7 °C 91 % 1031,9 hPa 0,0 mm 0,0 mm nein 14,5 km/h 30,6 km/h 0,0 mm/h W 0,000 klux 0,0 W/qm 0,0 nein 9,87 µg/m³ 2,76 µg/m³ 07:50
07:551,7 °C 91 % 1031,9 hPa 0,0 mm 0,0 mm nein 11,3 km/h 20,9 km/h 0,0 mm/h W 0,000 klux 0,0 W/qm 0,0 nein 4,96 µg/m³ 3,86 µg/m³ 07:55
UhrzeitTemperaturFeuchteLuftdruckNiederschlagEvapotranspirationNiederschlag?WindWindböenRegenrateWindrichtungHelligkeitSolarstrahlungUV-IndexSonne?Feinstaub 10µmFeinstaub 2,5µmUhrzeit
08:001,7 °C 91 % 1032,0 hPa 0,0 mm 0,0 mm nein 14,5 km/h 25,7 km/h 0,0 mm/h W 0,000 klux 0,0 W/qm 0,0 nein 4,61 µg/m³ 2,33 µg/m³ 08:00
08:051,7 °C 91 % 1032,0 hPa 0,0 mm 0,0 mm nein 9,7 km/h 27,4 km/h 0,0 mm/h W 0,000 klux 0,0 W/qm 0,0 nein 3,10 µg/m³ 2,42 µg/m³ 08:05
08:101,7 °C 92 % 1032,1 hPa 0,0 mm 0,0 mm nein 14,5 km/h 29,0 km/h 0,0 mm/h W 0,000 klux 0,0 W/qm 0,0 nein 3,37 µg/m³ 2,00 µg/m³ 08:10
08:151,7 °C 92 % 1032,1 hPa 0,0 mm 0,0 mm nein 11,3 km/h 20,9 km/h 0,0 mm/h W 0,000 klux 5,0 W/qm 0,0 nein 2,30 µg/m³ 1,73 µg/m³ 08:15
08:201,7 °C 92 % 1032,3 hPa 0,0 mm 0,0 mm nein 14,5 km/h 29,0 km/h 0,0 mm/h W 0,000 klux 5,0 W/qm 0,0 nein 1,85 µg/m³ 1,25 µg/m³ 08:20
08:251,7 °C 92 % 1032,4 hPa 0,0 mm 0,0 mm nein 14,5 km/h 32,2 km/h 0,0 mm/h W 0,000 klux 6,0 W/qm 0,0 nein 2,10 µg/m³ 1,48 µg/m³ 08:25
08:301,7 °C 92 % 1032,5 hPa 0,0 mm 0,0 mm nein 14,5 km/h 25,7 km/h 0,0 mm/h WNW 0,000 klux 14,0 W/qm 0,0 nein 3,27 µg/m³ 1,63 µg/m³ 08:30
08:351,7 °C 92 % 1032,4 hPa 0,0 mm 0,0 mm nein 11,3 km/h 19,3 km/h 0,0 mm/h WNW 0,000 klux 43,0 W/qm 0,0 nein 2,22 µg/m³ 1,65 µg/m³ 08:35
08:401,7 °C 92 % 1032,6 hPa 0,0 mm 0,0 mm nein 11,3 km/h 24,1 km/h 0,0 mm/h W 0,000 klux 37,0 W/qm 0,0 nein 2,09 µg/m³ 1,63 µg/m³ 08:40
08:451,7 °C 92 % 1032,7 hPa 0,0 mm 0,0 mm nein 11,3 km/h 27,4 km/h 0,0 mm/h WNW 0,000 klux 55,0 W/qm 0,0 nein - - 08:45
08:501,7 °C 92 % 1032,7 hPa 0,0 mm 0,0 mm nein 12,9 km/h 20,9 km/h 0,0 mm/h WNW 0,000 klux 71,0 W/qm 0,0 nein 1,53 µg/m³ 1,38 µg/m³ 08:50
08:551,7 °C 92 % 1032,8 hPa 0,0 mm 0,0 mm nein 14,5 km/h 32,2 km/h 0,0 mm/h W 0,000 klux 68,0 W/qm 0,0 nein 2,12 µg/m³ 1,24 µg/m³ 08:55
09:001,7 °C 92 % 1032,7 hPa 0,0 mm 0,0 mm nein 11,3 km/h 33,8 km/h 0,0 mm/h W 0,000 klux 98,0 W/qm 0,0 nein 1,84 µg/m³ 1,20 µg/m³ 09:00
09:051,7 °C 92 % 1032,8 hPa 0,0 mm 0,0 mm nein 11,3 km/h 27,4 km/h 0,0 mm/h W 0,000 klux 76,0 W/qm 0,0 nein 1,61 µg/m³ 1,45 µg/m³ 09:05
09:101,7 °C 92 % 1032,9 hPa 0,0 mm 0,0 mm nein 9,7 km/h 19,3 km/h 0,0 mm/h WSW 0,000 klux 66,0 W/qm 0,0 nein 1,98 µg/m³ 1,45 µg/m³ 09:10
09:151,7 °C 91 % 1033,0 hPa 0,0 mm 0,0 mm nein 12,9 km/h 25,7 km/h 0,0 mm/h W 0,000 klux 61,0 W/qm 0,0 nein 4,73 µg/m³ 2,24 µg/m³ 09:15
09:201,7 °C 92 % 1032,9 hPa 0,0 mm 0,0 mm nein 9,7 km/h 20,9 km/h 0,0 mm/h WNW 0,000 klux 58,0 W/qm 0,0 nein 2,21 µg/m³ 1,99 µg/m³ 09:20
09:251,7 °C 91 % 1033,0 hPa 0,0 mm 0,0 mm nein 12,9 km/h 22,5 km/h 0,0 mm/h W 0,000 klux 47,0 W/qm 0,0 nein 2,79 µg/m³ 2,39 µg/m³ 09:25
09:301,7 °C 91 % 1033,0 hPa 0,0 mm 0,0 mm nein 12,9 km/h 27,4 km/h 0,0 mm/h W 0,000 klux 57,0 W/qm 0,0 nein 2,35 µg/m³ 1,76 µg/m³ 09:30
09:351,7 °C 91 % 1033,0 hPa 0,0 mm 0,0 mm nein 12,9 km/h 20,9 km/h 0,0 mm/h W 0,000 klux 85,0 W/qm 0,0 nein 2,74 µg/m³ 1,70 µg/m³ 09:35
09:401,7 °C 92 % 1033,0 hPa 0,0 mm 0,0 mm nein 11,3 km/h 24,1 km/h 0,0 mm/h W 0,000 klux 215,0 W/qm 0,0 nein 1,76 µg/m³ 1,39 µg/m³ 09:40
09:452,2 °C 91 % 1033,3 hPa 0,0 mm 0,0 mm nein 11,3 km/h 24,1 km/h 0,0 mm/h W 0,000 klux 83,0 W/qm 0,0 nein 2,45 µg/m³ 1,82 µg/m³ 09:45
09:502,2 °C 91 % 1033,3 hPa 0,0 mm 0,0 mm nein 11,3 km/h 20,9 km/h 0,0 mm/h W 0,000 klux 146,0 W/qm 0,0 nein 2,51 µg/m³ 1,49 µg/m³ 09:50
09:552,2 °C 91 % 1033,4 hPa 0,0 mm 0,0 mm nein 9,7 km/h 20,9 km/h 0,0 mm/h WNW 0,000 klux 291,0 W/qm 0,0 nein 3,18 µg/m³ 1,55 µg/m³ 09:55
UhrzeitTemperaturFeuchteLuftdruckNiederschlagEvapotranspirationNiederschlag?WindWindböenRegenrateWindrichtungHelligkeitSolarstrahlungUV-IndexSonne?Feinstaub 10µmFeinstaub 2,5µmUhrzeit
10:002,8 °C 91 % 1033,3 hPa 0,0 mm 0,1 mm nein 12,9 km/h 22,5 km/h 0,0 mm/h W 0,000 klux 243,0 W/qm 0,0 nein 1,89 µg/m³ 1,48 µg/m³ 10:00
10:052,8 °C 90 % 1033,2 hPa 0,0 mm 0,0 mm nein 14,5 km/h 25,7 km/h 0,0 mm/h WNW 0,000 klux 240,0 W/qm 0,0 nein 2,85 µg/m³ 1,49 µg/m³ 10:05
10:102,8 °C 89 % 1033,2 hPa 0,0 mm 0,0 mm nein 14,5 km/h 29,0 km/h 0,0 mm/h WNW 0,000 klux 150,0 W/qm 0,0 nein 2,77 µg/m³ 1,70 µg/m³ 10:10
10:152,8 °C 89 % 1033,2 hPa 0,0 mm 0,0 mm nein 9,7 km/h 22,5 km/h 0,0 mm/h WNW 0,000 klux 147,0 W/qm 0,0 nein 3,32 µg/m³ 2,02 µg/m³ 10:15
10:202,8 °C 88 % 1033,4 hPa 0,0 mm 0,0 mm nein 12,9 km/h 22,5 km/h 0,0 mm/h W 0,000 klux 197,0 W/qm 0,0 nein 2,55 µg/m³ 1,99 µg/m³ 10:20
10:252,8 °C 88 % 1033,2 hPa 0,0 mm 0,0 mm nein 11,3 km/h 19,3 km/h 0,0 mm/h WNW 0,000 klux 137,0 W/qm 0,0 nein 2,98 µg/m³ 1,68 µg/m³ 10:25
10:302,8 °C 87 % 1033,4 hPa 0,0 mm 0,0 mm nein 14,5 km/h 27,4 km/h 0,0 mm/h WNW 0,000 klux 89,0 W/qm 0,0 nein 2,81 µg/m³ 1,67 µg/m³ 10:30
10:352,8 °C 87 % 1033,4 hPa 0,0 mm 0,0 mm nein 12,9 km/h 22,5 km/h 0,0 mm/h WNW 0,000 klux 96,0 W/qm 0,0 nein 3,91 µg/m³ 1,86 µg/m³ 10:35
10:402,8 °C 87 % 1033,5 hPa 0,0 mm 0,0 mm nein 12,9 km/h 22,5 km/h 0,0 mm/h WNW 0,000 klux 120,0 W/qm 0,0 nein 2,82 µg/m³ 1,83 µg/m³ 10:40
10:452,8 °C 87 % 1033,5 hPa 0,0 mm 0,0 mm nein 11,3 km/h 24,1 km/h 0,0 mm/h WNW 0,000 klux 126,0 W/qm 0,0 nein 3,98 µg/m³ 1,95 µg/m³ 10:45
10:502,8 °C 87 % 1033,6 hPa 0,0 mm 0,0 mm nein 11,3 km/h 22,5 km/h 0,0 mm/h WNW 0,000 klux 107,0 W/qm 0,0 nein 3,30 µg/m³ 1,93 µg/m³ 10:50
10:552,8 °C 87 % 1033,7 hPa 0,0 mm 0,0 mm nein 12,9 km/h 29,0 km/h 0,0 mm/h WNW 0,000 klux 83,0 W/qm 0,0 nein 3,91 µg/m³ 1,94 µg/m³ 10:55
11:002,8 °C 87 % 1033,7 hPa 0,0 mm 0,1 mm nein 11,3 km/h 25,7 km/h 0,0 mm/h WNW 0,000 klux 84,0 W/qm 0,0 nein 2,52 µg/m³ 1,49 µg/m³ 11:00
11:052,8 °C 87 % 1033,8 hPa 0,0 mm 0,0 mm nein 9,7 km/h 20,9 km/h 0,0 mm/h WNW 0,000 klux 92,0 W/qm 0,0 nein 3,41 µg/m³ 2,01 µg/m³ 11:05
11:102,8 °C 87 % 1033,8 hPa 0,0 mm 0,0 mm nein 11,3 km/h 25,7 km/h 0,0 mm/h WNW 0,000 klux 127,0 W/qm 0,0 nein 4,15 µg/m³ 2,24 µg/m³ 11:10
11:152,8 °C 87 % 1033,8 hPa 0,0 mm 0,0 mm nein 9,7 km/h 14,5 km/h 0,0 mm/h WNW 0,000 klux 141,0 W/qm 0,0 nein 3,83 µg/m³ 1,71 µg/m³ 11:15
11:203,3 °C 86 % 1033,7 hPa 0,0 mm 0,0 mm nein 14,5 km/h 22,5 km/h 0,0 mm/h WNW 0,000 klux 126,0 W/qm 0,0 nein 4,74 µg/m³ 1,94 µg/m³ 11:20
11:253,3 °C 86 % 1033,7 hPa 0,0 mm 0,0 mm nein 14,5 km/h 22,5 km/h 0,0 mm/h WNW 0,000 klux 113,0 W/qm 0,0 nein 4,48 µg/m³ 1,81 µg/m³ 11:25
11:303,3 °C 85 % 1033,8 hPa 0,0 mm 0,0 mm nein 14,5 km/h 27,4 km/h 0,0 mm/h WNW 0,000 klux 96,0 W/qm 0,0 nein 3,63 µg/m³ 1,77 µg/m³ 11:30
11:353,3 °C 85 % 1033,7 hPa 0,0 mm 0,0 mm nein 8,0 km/h 24,1 km/h 0,0 mm/h WNW 0,000 klux 90,0 W/qm 0,0 nein 2,69 µg/m³ 1,53 µg/m³ 11:35
11:403,3 °C 84 % 1033,7 hPa 0,0 mm 0,0 mm nein 12,9 km/h 24,1 km/h 0,0 mm/h WNW 0,000 klux 110,0 W/qm 0,0 nein 4,14 µg/m³ 1,73 µg/m³ 11:40
11:453,3 °C 84 % 1033,7 hPa 0,0 mm 0,0 mm nein 14,5 km/h 24,1 km/h 0,0 mm/h WNW 0,000 klux 82,0 W/qm 0,0 nein - - 11:45
11:503,3 °C 84 % 1033,6 hPa 0,0 mm 0,0 mm nein 12,9 km/h 25,7 km/h 0,0 mm/h W 0,000 klux 68,0 W/qm 0,0 nein 3,53 µg/m³ 1,65 µg/m³ 11:50
11:552,8 °C 84 % 1033,8 hPa 0,0 mm 0,0 mm nein 11,3 km/h 25,7 km/h 0,0 mm/h W 0,000 klux 62,0 W/qm 0,0 nein 3,80 µg/m³ 1,84 µg/m³ 11:55
UhrzeitTemperaturFeuchteLuftdruckNiederschlagEvapotranspirationNiederschlag?WindWindböenRegenrateWindrichtungHelligkeitSolarstrahlungUV-IndexSonne?Feinstaub 10µmFeinstaub 2,5µmUhrzeit
12:002,8 °C 84 % 1033,8 hPa 0,0 mm 0,1 mm nein 14,5 km/h 22,5 km/h 0,0 mm/h WNW 0,000 klux 44,0 W/qm 0,0 nein 3,19 µg/m³ 1,81 µg/m³ 12:00
12:052,8 °C 83 % 1033,8 hPa 0,0 mm 0,0 mm nein 14,5 km/h 29,0 km/h 0,0 mm/h WNW 0,000 klux 38,0 W/qm 0,0 nein 3,76 µg/m³ 2,07 µg/m³ 12:05
12:102,8 °C 84 % 1033,7 hPa 0,0 mm 0,0 mm nein 14,5 km/h 38,6 km/h 0,0 mm/h WNW 0,000 klux 59,0 W/qm 0,0 nein - - 12:10
12:152,8 °C 84 % 1033,9 hPa 0,0 mm 0,0 mm nein 17,7 km/h 35,4 km/h 0,0 mm/h WNW 0,000 klux 60,0 W/qm 0,0 nein 3,66 µg/m³ 1,94 µg/m³ 12:15
12:202,8 °C 84 % 1033,9 hPa 0,0 mm 0,0 mm nein 14,5 km/h 27,4 km/h 0,0 mm/h WNW 0,000 klux 82,0 W/qm 0,0 nein 3,58 µg/m³ 1,82 µg/m³ 12:20
12:252,8 °C 84 % 1034,0 hPa 0,0 mm 0,0 mm nein 14,5 km/h 30,6 km/h 0,0 mm/h WNW 0,000 klux 62,0 W/qm 0,0 nein - - 12:25
12:302,8 °C 83 % 1033,9 hPa 0,0 mm 0,0 mm nein 16,1 km/h 25,7 km/h 0,0 mm/h WNW 0,000 klux 64,0 W/qm 0,0 nein 4,09 µg/m³ 2,25 µg/m³ 12:30
12:352,8 °C 83 % 1033,9 hPa 0,0 mm 0,0 mm nein 14,5 km/h 29,0 km/h 0,0 mm/h WNW 0,000 klux 62,0 W/qm 0,0 nein 4,72 µg/m³ 2,27 µg/m³ 12:35
12:402,8 °C 83 % 1034,0 hPa 0,0 mm 0,0 mm nein 16,1 km/h 29,0 km/h 0,0 mm/h WNW 0,000 klux 91,0 W/qm 0,0 nein 3,36 µg/m³ 1,89 µg/m³ 12:40
12:453,3 °C 84 % 1033,8 hPa 0,0 mm 0,0 mm nein 17,7 km/h 32,2 km/h 0,0 mm/h WNW 0,000 klux 176,0 W/qm 0,2 nein 2,96 µg/m³ 1,33 µg/m³ 12:45
12:503,3 °C 83 % 1033,7 hPa 0,0 mm 0,0 mm nein 17,7 km/h 29,0 km/h 0,0 mm/h WNW 0,000 klux 501,0 W/qm 0,6 nein 3,79 µg/m³ 1,97 µg/m³ 12:50
12:553,3 °C 81 % 1033,9 hPa 0,0 mm 0,0 mm nein 14,5 km/h 29,0 km/h 0,0 mm/h WNW 0,000 klux 179,0 W/qm 0,5 nein 4,28 µg/m³ 1,61 µg/m³ 12:55
13:003,3 °C 81 % 1033,9 hPa 0,0 mm 0,1 mm nein 16,1 km/h 27,4 km/h 0,0 mm/h WNW 0,000 klux 520,0 W/qm 0,6 nein 2,68 µg/m³ 1,81 µg/m³ 13:00
13:053,9 °C 81 % 1033,7 hPa 0,0 mm 0,0 mm nein 16,1 km/h 27,4 km/h 0,0 mm/h W 0,000 klux 420,0 W/qm 0,2 nein 2,68 µg/m³ 1,33 µg/m³ 13:05
13:103,9 °C 79 % 1033,7 hPa 0,0 mm 0,0 mm nein 19,3 km/h 30,6 km/h 0,0 mm/h WNW 0,000 klux 176,0 W/qm 0,0 nein 3,40 µg/m³ 1,09 µg/m³ 13:10
13:153,9 °C 74 % 1033,6 hPa 0,0 mm 0,0 mm nein 19,3 km/h 35,4 km/h 0,0 mm/h WNW 0,000 klux 177,0 W/qm 0,0 nein 4,17 µg/m³ 1,38 µg/m³ 13:15
13:203,9 °C 73 % 1033,7 hPa 0,0 mm 0,0 mm nein 19,3 km/h 30,6 km/h 0,0 mm/h WNW 0,000 klux 162,0 W/qm 0,0 nein 5,00 µg/m³ 1,67 µg/m³ 13:20
13:253,9 °C 77 % 1033,5 hPa 0,0 mm 0,0 mm nein 14,5 km/h 25,7 km/h 0,0 mm/h WNW 0,000 klux 154,0 W/qm 0,0 nein 3,77 µg/m³ 1,54 µg/m³ 13:25
13:303,9 °C 78 % 1033,5 hPa 0,0 mm 0,0 mm nein 12,9 km/h 20,9 km/h 0,0 mm/h WNW 0,000 klux 272,0 W/qm 0,0 nein 4,51 µg/m³ 1,71 µg/m³ 13:30
13:353,9 °C 79 % 1033,5 hPa 0,0 mm 0,0 mm nein 12,9 km/h 22,5 km/h 0,0 mm/h WNW 0,000 klux 111,0 W/qm 0,0 nein 3,04 µg/m³ 1,53 µg/m³ 13:35
13:403,9 °C 79 % 1033,5 hPa 0,0 mm 0,0 mm nein 14,5 km/h 27,4 km/h 0,0 mm/h WNW 0,000 klux 100,0 W/qm 0,0 nein 3,69 µg/m³ 1,57 µg/m³ 13:40
13:453,9 °C 79 % 1033,5 hPa 0,0 mm 0,0 mm nein 12,9 km/h 25,7 km/h 0,0 mm/h WNW 0,000 klux 68,0 W/qm 0,0 nein 3,52 µg/m³ 1,45 µg/m³ 13:45
13:503,9 °C 78 % 1033,5 hPa 0,0 mm 0,0 mm nein 11,3 km/h 25,7 km/h 0,0 mm/h WNW 0,000 klux 74,0 W/qm 0,0 nein 5,75 µg/m³ 1,83 µg/m³ 13:50
13:553,9 °C 78 % 1033,5 hPa 0,0 mm 0,0 mm nein 12,9 km/h 22,5 km/h 0,0 mm/h WNW 0,000 klux 111,0 W/qm 0,0 nein 5,38 µg/m³ 1,97 µg/m³ 13:55
UhrzeitTemperaturFeuchteLuftdruckNiederschlagEvapotranspirationNiederschlag?WindWindböenRegenrateWindrichtungHelligkeitSolarstrahlungUV-IndexSonne?Feinstaub 10µmFeinstaub 2,5µmUhrzeit
14:003,9 °C 78 % 1033,4 hPa 0,0 mm 0,1 mm nein 14,5 km/h 24,1 km/h 0,0 mm/h WNW 0,000 klux 114,0 W/qm 0,0 nein 4,71 µg/m³ 1,52 µg/m³ 14:00
14:053,9 °C 78 % 1033,3 hPa 0,0 mm 0,0 mm nein 11,3 km/h 25,7 km/h 0,0 mm/h WNW 0,000 klux 99,0 W/qm 0,0 nein 4,91 µg/m³ 1,64 µg/m³ 14:05
14:103,9 °C 77 % 1033,3 hPa 0,0 mm 0,0 mm nein 12,9 km/h 25,7 km/h 0,0 mm/h WNW 0,000 klux 95,0 W/qm 0,0 nein 10,72 µg/m³ 2,02 µg/m³ 14:10
14:153,9 °C 76 % 1033,3 hPa 0,0 mm 0,0 mm nein 14,5 km/h 25,7 km/h 0,0 mm/h WNW 0,000 klux 116,0 W/qm 0,0 nein 6,72 µg/m³ 2,39 µg/m³ 14:15
14:203,9 °C 76 % 1033,3 hPa 0,0 mm 0,0 mm nein 14,5 km/h 25,7 km/h 0,0 mm/h WNW 0,000 klux 113,0 W/qm 0,0 nein 5,35 µg/m³ 1,79 µg/m³ 14:20
14:253,9 °C 76 % 1033,4 hPa 0,0 mm 0,0 mm nein 12,9 km/h 24,1 km/h 0,0 mm/h WNW 0,000 klux 138,0 W/qm 0,0 nein 5,20 µg/m³ 2,00 µg/m³ 14:25
14:303,9 °C 75 % 1033,6 hPa 0,0 mm 0,0 mm nein 12,9 km/h 25,7 km/h 0,0 mm/h WNW 0,000 klux 66,0 W/qm 0,0 nein 7,98 µg/m³ 2,94 µg/m³ 14:30
14:353,9 °C 76 % 1033,6 hPa 0,0 mm 0,0 mm nein 12,9 km/h 22,5 km/h 0,0 mm/h WNW 0,000 klux 52,0 W/qm 0,0 nein 5,18 µg/m³ 2,00 µg/m³ 14:35
14:403,9 °C 76 % 1033,7 hPa 0,0 mm 0,0 mm nein 8,0 km/h 20,9 km/h 0,0 mm/h WNW 0,000 klux 48,0 W/qm 0,0 nein 4,06 µg/m³ 1,98 µg/m³ 14:40
14:453,9 °C 76 % 1033,7 hPa 0,0 mm 0,0 mm nein 11,3 km/h 22,5 km/h 0,0 mm/h WNW 0,000 klux 71,0 W/qm 0,0 nein 4,68 µg/m³ 2,39 µg/m³ 14:45
14:503,9 °C 76 % 1033,8 hPa 0,0 mm 0,0 mm nein 16,1 km/h 30,6 km/h 0,0 mm/h WNW 0,000 klux 70,0 W/qm 0,0 nein 6,07 µg/m³ 2,37 µg/m³ 14:50
14:553,9 °C 76 % 1033,7 hPa 0,0 mm 0,0 mm nein 14,5 km/h 22,5 km/h 0,0 mm/h WNW 0,000 klux 74,0 W/qm 0,0 nein 5,89 µg/m³ 2,25 µg/m³ 14:55
15:003,9 °C 77 % 1033,7 hPa 0,0 mm 0,1 mm nein 11,3 km/h 24,1 km/h 0,0 mm/h WNW 0,000 klux 80,0 W/qm 0,0 nein 8,27 µg/m³ 2,49 µg/m³ 15:00
15:053,9 °C 77 % 1033,7 hPa 0,0 mm 0,0 mm nein 12,9 km/h 25,7 km/h 0,0 mm/h W 0,000 klux 86,0 W/qm 0,0 nein 3,61 µg/m³ 2,31 µg/m³ 15:05
15:103,9 °C 77 % 1033,7 hPa 0,0 mm 0,0 mm nein 12,9 km/h 22,5 km/h 0,0 mm/h WNW 0,000 klux 94,0 W/qm 0,0 nein 3,55 µg/m³ 1,52 µg/m³ 15:10
15:153,9 °C 77 % 1033,8 hPa 0,0 mm 0,0 mm nein 12,9 km/h 20,9 km/h 0,0 mm/h W 0,000 klux 95,0 W/qm 0,0 nein 6,93 µg/m³ 2,13 µg/m³ 15:15
15:203,9 °C 78 % 1033,8 hPa 0,0 mm 0,0 mm nein 12,9 km/h 25,7 km/h 0,0 mm/h W 0,000 klux 71,0 W/qm 0,0 nein 4,42 µg/m³ 2,13 µg/m³ 15:20
15:253,9 °C 78 % 1033,8 hPa 0,0 mm 0,0 mm nein 6,4 km/h 14,5 km/h 0,0 mm/h WNW 0,000 klux 76,0 W/qm 0,0 nein 4,12 µg/m³ 2,07 µg/m³ 15:25
15:303,9 °C 78 % 1033,8 hPa 0,0 mm 0,0 mm nein 8,0 km/h 17,7 km/h 0,0 mm/h W 0,000 klux 64,0 W/qm 0,0 nein 3,31 µg/m³ 2,25 µg/m³ 15:30
15:353,9 °C 78 % 1033,9 hPa 0,0 mm 0,0 mm nein 11,3 km/h 20,9 km/h 0,0 mm/h W 0,000 klux 52,0 W/qm 0,0 nein - - 15:35
15:403,9 °C 78 % 1033,8 hPa 0,0 mm 0,0 mm nein 9,7 km/h 20,9 km/h 0,0 mm/h W 0,000 klux 57,0 W/qm 0,0 nein 4,87 µg/m³ 1,60 µg/m³ 15:40
15:453,9 °C 78 % 1033,9 hPa 0,0 mm 0,0 mm nein 11,3 km/h 27,4 km/h 0,0 mm/h WNW 0,000 klux 68,0 W/qm 0,0 nein 3,17 µg/m³ 1,66 µg/m³ 15:45
15:503,9 °C 77 % 1033,8 hPa 0,0 mm 0,0 mm nein 12,9 km/h 24,1 km/h 0,0 mm/h WNW 0,000 klux 60,0 W/qm 0,0 nein 4,15 µg/m³ 1,89 µg/m³ 15:50
15:553,9 °C 77 % 1033,9 hPa 0,0 mm 0,0 mm nein 11,3 km/h 20,9 km/h 0,0 mm/h WNW 0,000 klux 64,0 W/qm 0,0 nein 5,43 µg/m³ 2,15 µg/m³ 15:55
UhrzeitTemperaturFeuchteLuftdruckNiederschlagEvapotranspirationNiederschlag?WindWindböenRegenrateWindrichtungHelligkeitSolarstrahlungUV-IndexSonne?Feinstaub 10µmFeinstaub 2,5µmUhrzeit
16:003,9 °C 77 % 1033,9 hPa 0,0 mm 0,1 mm nein 11,3 km/h 22,5 km/h 0,0 mm/h WNW 0,000 klux 46,0 W/qm 0,0 nein 7,19 µg/m³ 3,83 µg/m³ 16:00
16:053,3 °C 77 % 1034,2 hPa 0,0 mm 0,0 mm nein 9,7 km/h 17,7 km/h 0,0 mm/h WNW 0,000 klux 53,0 W/qm 0,0 nein 10,64 µg/m³ 2,57 µg/m³ 16:05
16:103,3 °C 77 % 1034,3 hPa 0,0 mm 0,0 mm nein 9,7 km/h 22,5 km/h 0,0 mm/h W 0,000 klux 38,0 W/qm 0,0 nein 4,18 µg/m³ 2,29 µg/m³ 16:10
16:153,3 °C 77 % 1034,4 hPa 0,0 mm 0,0 mm nein 11,3 km/h 19,3 km/h 0,0 mm/h W 0,000 klux 29,0 W/qm 0,0 nein 5,17 µg/m³ 2,92 µg/m³ 16:15
16:203,3 °C 78 % 1034,4 hPa 0,0 mm 0,0 mm nein 6,4 km/h 14,5 km/h 0,0 mm/h W 0,000 klux 24,0 W/qm 0,0 nein 6,82 µg/m³ 3,49 µg/m³ 16:20
16:253,3 °C 78 % 1034,4 hPa 0,0 mm 0,0 mm nein 9,7 km/h 20,9 km/h 0,0 mm/h W 0,000 klux 18,0 W/qm 0,0 nein 5,79 µg/m³ 2,96 µg/m³ 16:25
16:303,3 °C 79 % 1034,4 hPa 0,0 mm 0,0 mm nein 12,9 km/h 20,9 km/h 0,0 mm/h W 0,000 klux 17,0 W/qm 0,0 nein 5,74 µg/m³ 2,93 µg/m³ 16:30
Gesamt: 2,4 °C 88 % 1031,5 hPa 0,2 mm 0,6 mm ja 12,9 km/h 25,4 km/h 0,0 mm/h 0 0,000 klux 52,4 W/qm 0,0 nein 3,74 µg/m³ 2,28 µg/m³

Insgesamt 199 Zeilen mal 16 Spalten = 3184 Werte werden angezeigt.

www.wetter-rosstal.de   •   www.wetter-franken.de   •   www.lightningmaps.org   •   Start   •   Kontakt / Datenschutz   •   PC-Kümmerer